createdAt,value
2022-09-05T00:05:19.786Z,2.40
2022-09-05T00:11:42.806Z,3.13
2022-09-05T00:16:30.372Z,2.65
2022-09-05T00:24:27.646Z,3.08
2022-09-05T00:27:26.967Z,2.50
2022-09-05T00:32:37.960Z,3.13
2022-09-05T00:37:46.362Z,2.75
2022-09-05T00:42:53.256Z,2.75
2022-09-05T00:48:14.828Z,3.17
2022-09-05T00:53:31.546Z,3.03
2022-09-05T00:58:45.067Z,2.72
2022-09-05T01:04:17.606Z,2.75
2022-09-05T01:09:44.583Z,2.65
2022-09-05T01:15:10.573Z,2.60
2022-09-05T01:20:40.172Z,3.00
2022-09-05T01:26:01.308Z,2.78
2022-09-05T01:31:26.250Z,2.70
2022-09-05T01:36:53.389Z,2.88
2022-09-05T01:42:14.337Z,2.70
2022-09-05T01:47:49.626Z,2.63
2022-09-05T01:53:05.266Z,3.05
2022-09-05T01:58:41.337Z,2.83
2022-09-05T02:03:59.500Z,2.78
2022-09-05T02:09:35.213Z,2.67
2022-09-05T02:15:00.507Z,2.80
2022-09-05T02:20:31.224Z,2.90
2022-09-05T02:26:02.345Z,2.90
2022-09-05T02:31:26.289Z,2.80
2022-09-05T02:36:50.762Z,3.00
2022-09-05T02:45:14.211Z,3.05
2022-09-05T02:48:14.751Z,2.97
2022-09-05T02:57:26.857Z,2.75
2022-09-05T02:59:10.781Z,3.10
2022-09-05T03:04:31.355Z,3.45
2022-09-05T03:10:03.938Z,3.03
2022-09-05T03:15:43.808Z,3.00
2022-09-05T03:21:22.312Z,2.88
2022-09-05T03:26:34.460Z,2.80
2022-09-05T03:32:03.821Z,2.88
2022-09-05T03:37:33.434Z,2.92
2022-09-05T03:43:11.462Z,2.85
2022-09-05T03:48:34.696Z,3.10
2022-09-05T03:57:25.904Z,3.00
2022-09-05T03:59:30.870Z,3.05
2022-09-05T04:08:10.223Z,3.20
2022-09-05T04:10:10.079Z,3.20
2022-09-05T04:15:34.394Z,2.70
2022-09-05T04:21:04.870Z,3.10
2022-09-05T04:26:20.393Z,3.80
2022-09-05T04:31:34.188Z,3.00
2022-09-05T04:36:41.220Z,3.00
2022-09-05T04:42:00.674Z,3.15
2022-09-05T04:47:29.637Z,2.85
2022-09-05T04:53:02.432Z,3.20
2022-09-05T04:58:10.836Z,2.53
2022-09-05T05:06:19.103Z,2.92
2022-09-05T05:08:46.215Z,3.08
2022-09-05T05:18:09.601Z,3.08
2022-09-05T05:20:42.256Z,2.65
2022-09-05T05:25:48.167Z,2.70
2022-09-05T05:30:50.603Z,3.00
2022-09-05T05:36:01.876Z,3.40
2022-09-05T05:41:43.359Z,3.63
2022-09-05T05:46:55.649Z,4.07
2022-09-05T05:52:32.885Z,3.55
2022-09-05T05:58:15.484Z,3.58
2022-09-05T06:04:01.910Z,3.75
2022-09-05T06:14:49.044Z,3.50
2022-09-05T06:15:29.450Z,3.20
2022-09-05T06:22:06.614Z,3.90
2022-09-05T06:31:44.133Z,2.70
2022-09-05T06:37:22.117Z,2.90
2022-09-05T06:42:43.590Z,2.78
2022-09-05T06:47:47.815Z,2.80
2022-09-05T06:53:32.513Z,2.67
2022-09-05T06:59:09.962Z,2.70
2022-09-05T07:05:37.450Z,2.90
2022-09-05T07:10:40.156Z,2.72
2022-09-05T07:15:50.862Z,2.80
2022-09-05T07:21:16.718Z,2.58
2022-09-05T07:26:52.290Z,2.53
2022-09-05T07:31:47.013Z,2.50
2022-09-05T07:37:15.473Z,2.60
2022-09-05T07:42:23.025Z,2.50
2022-09-05T07:47:30.214Z,2.38
2022-09-05T07:56:54.645Z,2.60
2022-09-05T07:58:02.745Z,2.50
2022-09-05T08:03:13.453Z,2.60
2022-09-05T08:08:20.572Z,2.60
2022-09-05T08:13:48.505Z,2.40
2022-09-05T08:18:58.140Z,2.38
2022-09-05T08:24:16.381Z,2.80
2022-09-05T08:29:26.057Z,2.85
2022-09-05T08:34:45.629Z,2.45
2022-09-05T08:39:57.531Z,2.35
2022-09-05T08:46:43.694Z,2.20
2022-09-05T08:51:15.496Z,2.78
2022-09-05T08:56:28.106Z,2.45
2022-09-05T09:02:00.694Z,2.67
2022-09-05T09:07:48.063Z,2.50
2022-09-05T09:13:13.130Z,2.35
2022-09-05T09:18:19.608Z,2.53
2022-09-05T09:23:50.071Z,2.60
2022-09-05T09:29:07.200Z,2.25
2022-09-05T09:34:16.521Z,2.50
2022-09-05T09:39:38.849Z,2.45
2022-09-05T09:44:48.432Z,2.17
2022-09-05T09:50:00.470Z,2.15
2022-09-05T09:55:32.734Z,2.20
2022-09-05T10:01:00.781Z,2.15
2022-09-05T10:12:03.174Z,2.13
2022-09-05T10:17:20.994Z,1.90
2022-09-05T10:22:50.199Z,2.30
2022-09-05T10:28:04.557Z,2.00
2022-09-05T10:35:13.824Z,2.05
2022-09-05T10:39:03.530Z,2.10
2022-09-05T10:44:10.777Z,2.35
2022-09-05T10:49:16.439Z,1.80
2022-09-05T10:54:48.888Z,1.88
2022-09-05T11:02:19.091Z,1.80
2022-09-05T11:05:45.714Z,1.40
2022-09-05T11:10:56.613Z,1.88
2022-09-05T11:16:32.672Z,1.55
2022-09-05T11:22:05.200Z,1.50
2022-09-05T11:27:43.555Z,1.40
2022-09-05T11:39:45.991Z,1.58
2022-09-05T11:40:10.269Z,1.50
2022-09-05T11:44:54.116Z,1.35
2022-09-05T11:50:15.104Z,1.70
2022-09-05T11:55:47.036Z,1.17
2022-09-05T12:07:26.984Z,1.40
2022-09-05T12:12:43.350Z,1.20
2022-09-05T12:17:58.648Z,1.45
2022-09-05T12:23:47.523Z,1.27
2022-09-05T12:29:32.606Z,1.48
2022-09-05T12:41:34.322Z,1.60
2022-09-05T12:41:46.106Z,1.45
2022-09-05T12:42:10.926Z,1.50
2022-09-05T12:45:47.650Z,1.55
2022-09-05T12:51:01.028Z,1.83
2022-09-05T12:58:11.111Z,1.60
2022-09-05T13:03:11.485Z,1.50
2022-09-05T13:07:02.856Z,1.77
2022-09-05T13:14:54.122Z,1.80
2022-09-05T13:18:00.687Z,1.58
2022-09-05T13:23:15.418Z,1.50
2022-09-05T13:28:19.931Z,1.40
2022-09-05T13:38:00.412Z,1.50
2022-09-05T13:39:06.538Z,2.20
2022-09-05T13:44:26.572Z,1.83
2022-09-05T13:49:43.301Z,1.70
2022-09-05T13:55:11.959Z,2.08
2022-09-05T14:00:27.750Z,1.92
2022-09-05T14:05:49.305Z,2.08
2022-09-05T14:11:18.934Z,2.20
2022-09-05T14:16:26.731Z,2.63
2022-09-05T14:21:36.854Z,2.95
2022-09-05T14:27:16.845Z,2.22
2022-09-05T14:37:35.214Z,2.40
2022-09-05T14:38:45.841Z,2.55
2022-09-05T14:44:08.633Z,2.03
2022-09-05T14:49:34.348Z,2.20
2022-09-05T15:02:49.360Z,2.17
2022-09-05T15:05:27.684Z,2.15
2022-09-05T15:12:17.769Z,2.33
2022-09-05T15:16:02.892Z,2.10
2022-09-05T15:21:37.882Z,2.28
2022-09-05T15:26:48.213Z,2.35
2022-09-05T15:32:23.014Z,2.50
2022-09-05T15:37:42.570Z,2.30
2022-09-05T15:42:57.738Z,2.67
2022-09-05T15:48:16.869Z,2.42
2022-09-05T15:53:30.751Z,2.50
2022-09-05T15:58:53.762Z,3.13
2022-09-05T16:06:20.004Z,2.65
2022-09-05T16:10:34.790Z,2.10
2022-09-05T16:16:29.911Z,2.63
2022-09-05T16:23:27.784Z,2.83
2022-09-05T16:26:25.608Z,2.55
2022-09-05T16:31:57.251Z,3.00
2022-09-05T16:37:10.888Z,3.10
2022-09-05T16:42:19.230Z,2.88
2022-09-05T16:47:36.549Z,3.13
2022-09-05T16:52:46.239Z,2.70
2022-09-05T16:58:08.950Z,2.85
2022-09-05T17:03:28.276Z,2.80
2022-09-05T17:08:33.380Z,2.88
2022-09-05T17:13:42.936Z,2.85
2022-09-05T17:18:46.767Z,3.50
2022-09-05T17:29:17.119Z,3.08
2022-09-05T17:35:16.712Z,3.00
2022-09-05T17:40:37.769Z,2.83
2022-09-05T17:45:50.500Z,3.03
2022-09-05T17:50:53.965Z,2.97
2022-09-05T17:55:56.130Z,3.20
2022-09-05T18:01:17.530Z,3.10
2022-09-05T18:06:19.162Z,2.97
2022-09-05T18:11:26.114Z,3.20
2022-09-05T18:22:06.420Z,2.75
2022-09-05T18:32:39.788Z,2.78
2022-09-05T18:37:41.806Z,3.05
2022-09-05T18:42:46.863Z,3.13
2022-09-05T18:47:59.039Z,3.10
2022-09-05T18:53:10.020Z,2.80
2022-09-05T18:58:22.199Z,3.45
2022-09-05T19:03:30.499Z,2.90
2022-09-05T19:08:37.215Z,3.22
2022-09-05T19:13:43.770Z,3.25
2022-09-05T19:19:05.454Z,3.28
2022-09-05T19:24:12.782Z,3.10
2022-09-05T19:36:45.455Z,3.35
2022-09-05T19:36:51.931Z,2.70
2022-09-05T19:45:32.820Z,3.25
2022-09-05T19:47:44.059Z,3.05
2022-09-05T19:51:16.911Z,3.45
2022-09-05T19:56:21.696Z,3.30
2022-09-05T20:01:23.642Z,3.60
2022-09-05T20:06:31.012Z,3.60
2022-09-05T20:11:45.123Z,3.63
2022-09-05T20:16:50.092Z,3.10
2022-09-05T20:21:56.698Z,3.40
2022-09-05T20:26:59.710Z,3.72
2022-09-05T20:32:02.489Z,3.65
2022-09-05T20:43:08.915Z,3.97
2022-09-05T20:43:22.292Z,3.70
2022-09-05T20:52:45.860Z,3.83
2022-09-05T20:54:19.755Z,4.00
2022-09-05T20:58:50.397Z,4.10
2022-09-05T21:03:57.246Z,3.90
2022-09-05T21:09:24.248Z,3.92
2022-09-05T21:14:28.772Z,3.70
2022-09-05T21:19:33.118Z,4.18
2022-09-05T21:24:35.492Z,4.00
2022-09-05T21:29:39.382Z,4.15
2022-09-05T21:34:45.130Z,3.88
2022-09-05T21:47:42.351Z,3.90
2022-09-05T21:50:31.343Z,3.85
2022-09-05T21:59:25.914Z,3.92
2022-09-05T22:00:57.238Z,4.30
2022-09-05T22:06:00.476Z,4.10
2022-09-05T22:11:10.490Z,4.15
2022-09-05T22:16:14.642Z,4.40
2022-09-05T22:21:32.450Z,4.63
2022-09-05T22:27:11.668Z,4.32
2022-09-05T22:32:08.822Z,4.18
2022-09-05T22:37:10.566Z,4.40
2022-09-05T22:42:12.629Z,4.78
2022-09-05T22:47:14.712Z,4.43
2022-09-05T22:52:16.356Z,3.80
2022-09-05T22:57:18.102Z,4.20
2022-09-05T23:02:19.841Z,4.55
2022-09-05T23:07:21.642Z,4.25
2022-09-05T23:12:23.434Z,4.63
2022-09-05T23:17:25.232Z,4.78
2022-09-05T23:22:26.951Z,4.55
2022-09-05T23:27:29.878Z,4.60
2022-09-05T23:32:31.848Z,4.72
2022-09-05T23:37:33.560Z,4.80
2022-09-05T23:42:35.251Z,4.40
2022-09-05T23:47:37.394Z,5.03
2022-09-05T23:52:40.102Z,4.97
2022-09-05T23:57:42.193Z,4.90
